sensor_id;sensor_type;location;lat;lon;timestamp;temperature;humidity
74901;DHT22;63461;51.416;6.758;2023-05-19T00:01:31;11.80;99.90
74901;DHT22;63461;51.416;6.758;2023-05-19T00:03:58;11.80;99.90
74901;DHT22;63461;51.416;6.758;2023-05-19T00:06:28;11.70;99.90
74901;DHT22;63461;51.416;6.758;2023-05-19T00:09:00;11.80;99.90
74901;DHT22;63461;51.416;6.758;2023-05-19T00:11:27;11.70;99.90
74901;DHT22;63461;51.416;6.758;2023-05-19T00:13:55;11.70;99.90
74901;DHT22;63461;51.416;6.758;2023-05-19T00:16:22;11.70;99.90
74901;DHT22;63461;51.416;6.758;2023-05-19T00:18:48;11.60;99.90
74901;DHT22;63461;51.416;6.758;2023-05-19T00:21:14;11.60;99.90
74901;DHT22;63461;51.416;6.758;2023-05-19T00:23:40;11.60;99.90
74901;DHT22;63461;51.416;6.758;2023-05-19T00:26:05;11.60;99.90
74901;DHT22;63461;51.416;6.758;2023-05-19T00:28:31;11.60;99.90
74901;DHT22;63461;51.416;6.758;2023-05-19T00:30:57;11.50;99.90
74901;DHT22;63461;51.416;6.758;2023-05-19T00:33:23;11.50;99.90
74901;DHT22;63461;51.416;6.758;2023-05-19T00:35:51;11.50;99.90
74901;DHT22;63461;51.416;6.758;2023-05-19T00:38:17;11.50;99.90
74901;DHT22;63461;51.416;6.758;2023-05-19T00:40:43;11.50;99.90
74901;DHT22;63461;51.416;6.758;2023-05-19T00:43:08;11.40;99.90
74901;DHT22;63461;51.416;6.758;2023-05-19T00:45:34;11.40;99.90
74901;DHT22;63461;51.416;6.758;2023-05-19T00:48:00;11.40;99.90
74901;DHT22;63461;51.416;6.758;2023-05-19T00:50:26;11.40;99.90
74901;DHT22;63461;51.416;6.758;2023-05-19T00:52:55;11.30;99.90
74901;DHT22;63461;51.416;6.758;2023-05-19T00:55:26;11.30;99.90
74901;DHT22;63461;51.416;6.758;2023-05-19T00:57:54;11.30;99.90
74901;DHT22;63461;51.416;6.758;2023-05-19T01:00:20;11.20;99.90
74901;DHT22;63461;51.416;6.758;2023-05-19T01:02:46;11.30;99.90
74901;DHT22;63461;51.416;6.758;2023-05-19T01:05:12;11.30;99.90
74901;DHT22;63461;51.416;6.758;2023-05-19T01:07:39;11.30;99.90
74901;DHT22;63461;51.416;6.758;2023-05-19T01:10:06;11.30;99.90
74901;DHT22;63461;51.416;6.758;2023-05-19T01:12:33;11.20;99.90
74901;DHT22;63461;51.416;6.758;2023-05-19T01:15:01;11.20;99.90
74901;DHT22;63461;51.416;6.758;2023-05-19T01:18:00;11.20;99.90
74901;DHT22;63461;51.416;6.758;2023-05-19T01:20:41;11.20;99.90
74901;DHT22;63461;51.416;6.758;2023-05-19T01:26:03;11.10;99.90
74901;DHT22;63461;51.416;6.758;2023-05-19T01:31:12;11.10;99.90
74901;DHT22;63461;51.416;6.758;2023-05-19T01:33:40;11.10;99.90
74901;DHT22;63461;51.416;6.758;2023-05-19T01:36:07;11.10;99.90
74901;DHT22;63461;51.416;6.758;2023-05-19T01:38:33;11.00;99.90
74901;DHT22;63461;51.416;6.758;2023-05-19T01:41:02;11.00;99.90
74901;DHT22;63461;51.416;6.758;2023-05-19T01:43:29;11.00;99.90
74901;DHT22;63461;51.416;6.758;2023-05-19T01:45:55;10.90;99.90
74901;DHT22;63461;51.416;6.758;2023-05-19T01:48:23;11.00;99.90
74901;DHT22;63461;51.416;6.758;2023-05-19T01:50:50;11.00;99.90
74901;DHT22;63461;51.416;6.758;2023-05-19T01:53:16;10.90;99.90
74901;DHT22;63461;51.416;6.758;2023-05-19T01:55:47;10.90;99.90
74901;DHT22;63461;51.416;6.758;2023-05-19T01:58:30;10.90;99.90
74901;DHT22;63461;51.416;6.758;2023-05-19T02:01:18;10.90;99.90
74901;DHT22;63461;51.416;6.758;2023-05-19T02:09:19;10.80;99.90
74901;DHT22;63461;51.416;6.758;2023-05-19T02:11:58;10.80;99.90
74901;DHT22;63461;51.416;6.758;2023-05-19T02:14:34;10.80;99.90
74901;DHT22;63461;51.416;6.758;2023-05-19T02:17:03;10.70;99.90
74901;DHT22;63461;51.416;6.758;2023-05-19T02:19:36;10.80;99.90
74901;DHT22;63461;51.416;6.758;2023-05-19T02:22:02;10.70;99.90
74901;DHT22;63461;51.416;6.758;2023-05-19T02:24:28;10.70;99.90
74901;DHT22;63461;51.416;6.758;2023-05-19T02:26:54;10.70;99.90
74901;DHT22;63461;51.416;6.758;2023-05-19T02:29:20;10.70;99.90
74901;DHT22;63461;51.416;6.758;2023-05-19T02:31:46;10.60;99.90
74901;DHT22;63461;51.416;6.758;2023-05-19T02:34:12;10.60;99.90
74901;DHT22;63461;51.416;6.758;2023-05-19T02:36:39;10.60;99.90
74901;DHT22;63461;51.416;6.758;2023-05-19T02:39:06;10.60;99.90
74901;DHT22;63461;51.416;6.758;2023-05-19T02:41:31;10.60;99.90
74901;DHT22;63461;51.416;6.758;2023-05-19T02:43:57;10.60;99.90
74901;DHT22;63461;51.416;6.758;2023-05-19T02:46:23;10.60;99.90
74901;DHT22;63461;51.416;6.758;2023-05-19T02:48:50;10.50;99.90
74901;DHT22;63461;51.416;6.758;2023-05-19T02:51:16;10.50;99.90
74901;DHT22;63461;51.416;6.758;2023-05-19T02:53:42;10.40;99.90
74901;DHT22;63461;51.416;6.758;2023-05-19T02:56:08;10.40;99.90
74901;DHT22;63461;51.416;6.758;2023-05-19T02:58:33;10.40;99.90
74901;DHT22;63461;51.416;6.758;2023-05-19T03:00:59;10.40;99.90
74901;DHT22;63461;51.416;6.758;2023-05-19T03:03:25;10.40;99.90
74901;DHT22;63461;51.416;6.758;2023-05-19T03:05:51;10.40;99.90
74901;DHT22;63461;51.416;6.758;2023-05-19T03:08:18;10.40;99.90
74901;DHT22;63461;51.416;6.758;2023-05-19T03:10:47;10.40;99.90
74901;DHT22;63461;51.416;6.758;2023-05-19T03:13:13;10.40;99.90
74901;DHT22;63461;51.416;6.758;2023-05-19T03:15:38;10.40;99.90
74901;DHT22;63461;51.416;6.758;2023-05-19T03:18:04;10.40;99.90
74901;DHT22;63461;51.416;6.758;2023-05-19T03:20:31;10.30;99.90
74901;DHT22;63461;51.416;6.758;2023-05-19T03:22:57;10.30;99.90
74901;DHT22;63461;51.416;6.758;2023-05-19T03:25:23;10.30;99.90
74901;DHT22;63461;51.416;6.758;2023-05-19T03:27:49;10.30;99.90
74901;DHT22;63461;51.416;6.758;2023-05-19T03:30:15;10.30;99.90
74901;DHT22;63461;51.416;6.758;2023-05-19T03:33:01;10.20;99.90
74901;DHT22;63461;51.416;6.758;2023-05-19T03:35:28;10.30;99.90
74901;DHT22;63461;51.416;6.758;2023-05-19T03:37:53;10.30;99.90
74901;DHT22;63461;51.416;6.758;2023-05-19T03:40:20;10.30;99.90
74901;DHT22;63461;51.416;6.758;2023-05-19T03:42:47;10.30;99.90
74901;DHT22;63461;51.416;6.758;2023-05-19T03:45:13;10.20;99.90
74901;DHT22;63461;51.416;6.758;2023-05-19T03:47:39;10.20;99.90
74901;DHT22;63461;51.416;6.758;2023-05-19T03:50:27;10.30;99.90
74901;DHT22;63461;51.416;6.758;2023-05-19T03:53:00;10.20;99.90
74901;DHT22;63461;51.416;6.758;2023-05-19T03:55:36;10.20;99.90
74901;DHT22;63461;51.416;6.758;2023-05-19T03:58:03;10.10;99.90
74901;DHT22;63461;51.416;6.758;2023-05-19T04:00:28;10.20;99.90
74901;DHT22;63461;51.416;6.758;2023-05-19T04:02:54;10.20;99.90
74901;DHT22;63461;51.416;6.758;2023-05-19T04:05:20;10.20;99.90
74901;DHT22;63461;51.416;6.758;2023-05-19T04:07:46;10.20;99.90
74901;DHT22;63461;51.416;6.758;2023-05-19T04:10:12;10.20;99.90
74901;DHT22;63461;51.416;6.758;2023-05-19T04:12:38;10.10;99.90
74901;DHT22;63461;51.416;6.758;2023-05-19T04:15:04;10.20;99.90
74901;DHT22;63461;51.416;6.758;2023-05-19T04:17:35;10.20;99.90
74901;DHT22;63461;51.416;6.758;2023-05-19T04:20:01;10.20;99.90
74901;DHT22;63461;51.416;6.758;2023-05-19T04:22:27;10.20;99.90
74901;DHT22;63461;51.416;6.758;2023-05-19T04:24:53;10.20;99.90
74901;DHT22;63461;51.416;6.758;2023-05-19T04:27:19;10.20;99.90
74901;DHT22;63461;51.416;6.758;2023-05-19T04:29:46;10.20;99.90
74901;DHT22;63461;51.416;6.758;2023-05-19T04:32:12;10.20;99.90
74901;DHT22;63461;51.416;6.758;2023-05-19T04:34:42;10.20;99.90
74901;DHT22;63461;51.416;6.758;2023-05-19T04:37:12;10.30;99.90
74901;DHT22;63461;51.416;6.758;2023-05-19T04:39:39;10.30;99.90
74901;DHT22;63461;51.416;6.758;2023-05-19T04:42:08;10.20;99.90
74901;DHT22;63461;51.416;6.758;2023-05-19T04:44:37;10.30;99.90
74901;DHT22;63461;51.416;6.758;2023-05-19T04:47:07;10.30;99.90
74901;DHT22;63461;51.416;6.758;2023-05-19T04:49:34;10.40;99.90
74901;DHT22;63461;51.416;6.758;2023-05-19T04:52:08;10.40;99.90
74901;DHT22;63461;51.416;6.758;2023-05-19T04:54:38;10.30;99.90
74901;DHT22;63461;51.416;6.758;2023-05-19T04:57:05;10.40;99.90
74901;DHT22;63461;51.416;6.758;2023-05-19T04:59:35;10.40;99.90
74901;DHT22;63461;51.416;6.758;2023-05-19T05:02:01;10.50;99.90
74901;DHT22;63461;51.416;6.758;2023-05-19T05:04:29;10.50;99.90
74901;DHT22;63461;51.416;6.758;2023-05-19T05:06:55;10.50;99.90
74901;DHT22;63461;51.416;6.758;2023-05-19T05:09:22;10.50;99.90
74901;DHT22;63461;51.416;6.758;2023-05-19T05:11:49;10.50;99.90
74901;DHT22;63461;51.416;6.758;2023-05-19T05:14:17;10.60;99.90
74901;DHT22;63461;51.416;6.758;2023-05-19T05:16:43;10.60;99.90
74901;DHT22;63461;51.416;6.758;2023-05-19T05:19:12;10.60;99.90
74901;DHT22;63461;51.416;6.758;2023-05-19T05:21:39;10.60;99.90
74901;DHT22;63461;51.416;6.758;2023-05-19T05:24:06;10.70;99.90
74901;DHT22;63461;51.416;6.758;2023-05-19T05:26:34;10.70;99.90
74901;DHT22;63461;51.416;6.758;2023-05-19T05:29:01;10.70;99.90
74901;DHT22;63461;51.416;6.758;2023-05-19T05:31:28;10.70;99.90
74901;DHT22;63461;51.416;6.758;2023-05-19T05:33:54;10.70;99.90
74901;DHT22;63461;51.416;6.758;2023-05-19T05:36:23;10.80;99.90
74901;DHT22;63461;51.416;6.758;2023-05-19T05:38:49;10.80;99.90
74901;DHT22;63461;51.416;6.758;2023-05-19T05:41:15;10.80;99.90
74901;DHT22;63461;51.416;6.758;2023-05-19T05:43:41;10.90;99.90
74901;DHT22;63461;51.416;6.758;2023-05-19T05:46:07;10.80;99.90
74901;DHT22;63461;51.416;6.758;2023-05-19T05:48:33;10.90;99.90
74901;DHT22;63461;51.416;6.758;2023-05-19T05:50:59;10.90;99.90
74901;DHT22;63461;51.416;6.758;2023-05-19T05:53:29;10.90;99.90
74901;DHT22;63461;51.416;6.758;2023-05-19T05:55:58;11.00;99.90
74901;DHT22;63461;51.416;6.758;2023-05-19T05:58:30;11.00;99.90
74901;DHT22;63461;51.416;6.758;2023-05-19T06:00:59;11.00;99.90
74901;DHT22;63461;51.416;6.758;2023-05-19T06:03:27;11.10;99.90
74901;DHT22;63461;51.416;6.758;2023-05-19T06:05:55;11.10;99.90
74901;DHT22;63461;51.416;6.758;2023-05-19T06:08:21;11.20;99.90
74901;DHT22;63461;51.416;6.758;2023-05-19T06:10:46;11.30;99.90
74901;DHT22;63461;51.416;6.758;2023-05-19T06:13:12;11.30;99.90
74901;DHT22;63461;51.416;6.758;2023-05-19T06:15:40;11.30;99.90
74901;DHT22;63461;51.416;6.758;2023-05-19T06:18:15;11.30;99.90
74901;DHT22;63461;51.416;6.758;2023-05-19T06:20:40;11.40;99.90
74901;DHT22;63461;51.416;6.758;2023-05-19T06:23:06;11.40;99.90
74901;DHT22;63461;51.416;6.758;2023-05-19T06:25:32;11.50;99.90
74901;DHT22;63461;51.416;6.758;2023-05-19T06:27:58;11.50;99.90
74901;DHT22;63461;51.416;6.758;2023-05-19T06:30:24;11.50;99.90
74901;DHT22;63461;51.416;6.758;2023-05-19T06:32:58;11.60;99.90
74901;DHT22;63461;51.416;6.758;2023-05-19T06:35:25;11.60;99.90
74901;DHT22;63461;51.416;6.758;2023-05-19T06:37:50;11.70;99.90
74901;DHT22;63461;51.416;6.758;2023-05-19T06:40:17;11.70;99.90
74901;DHT22;63461;51.416;6.758;2023-05-19T06:42:43;11.80;99.90
74901;DHT22;63461;51.416;6.758;2023-05-19T06:45:22;11.90;99.90
74901;DHT22;63461;51.416;6.758;2023-05-19T06:47:49;11.90;99.90
74901;DHT22;63461;51.416;6.758;2023-05-19T06:50:16;11.90;99.90
74901;DHT22;63461;51.416;6.758;2023-05-19T06:52:42;12.00;99.90
74901;DHT22;63461;51.416;6.758;2023-05-19T06:55:08;12.00;99.90
74901;DHT22;63461;51.416;6.758;2023-05-19T06:57:36;12.10;99.90
74901;DHT22;63461;51.416;6.758;2023-05-19T07:00:03;12.10;99.90
74901;DHT22;63461;51.416;6.758;2023-05-19T07:02:31;12.20;99.90
74901;DHT22;63461;51.416;6.758;2023-05-19T07:04:57;12.30;99.90
74901;DHT22;63461;51.416;6.758;2023-05-19T07:07:23;12.30;99.90
74901;DHT22;63461;51.416;6.758;2023-05-19T07:09:49;12.40;99.90
74901;DHT22;63461;51.416;6.758;2023-05-19T07:12:16;12.40;99.90
74901;DHT22;63461;51.416;6.758;2023-05-19T07:14:42;12.60;99.90
74901;DHT22;63461;51.416;6.758;2023-05-19T07:17:09;12.60;99.90
74901;DHT22;63461;51.416;6.758;2023-05-19T07:19:38;12.60;99.90
74901;DHT22;63461;51.416;6.758;2023-05-19T07:22:04;12.60;99.90
74901;DHT22;63461;51.416;6.758;2023-05-19T07:24:30;12.70;99.90
74901;DHT22;63461;51.416;6.758;2023-05-19T07:26:56;12.80;99.90
74901;DHT22;63461;51.416;6.758;2023-05-19T07:29:22;12.90;99.90
74901;DHT22;63461;51.416;6.758;2023-05-19T07:31:48;13.00;99.90
74901;DHT22;63461;51.416;6.758;2023-05-19T07:34:19;13.00;99.90
74901;DHT22;63461;51.416;6.758;2023-05-19T07:36:45;13.00;99.90
74901;DHT22;63461;51.416;6.758;2023-05-19T07:39:11;13.10;99.90
74901;DHT22;63461;51.416;6.758;2023-05-19T07:41:37;13.10;99.90
74901;DHT22;63461;51.416;6.758;2023-05-19T07:44:02;13.20;99.90
74901;DHT22;63461;51.416;6.758;2023-05-19T07:46:35;13.20;99.90
74901;DHT22;63461;51.416;6.758;2023-05-19T07:49:03;13.40;99.90
74901;DHT22;63461;51.416;6.758;2023-05-19T07:51:28;13.40;99.90
74901;DHT22;63461;51.416;6.758;2023-05-19T07:53:54;13.50;99.90
74901;DHT22;63461;51.416;6.758;2023-05-19T07:56:20;13.50;99.90
74901;DHT22;63461;51.416;6.758;2023-05-19T07:58:46;13.50;99.90
74901;DHT22;63461;51.416;6.758;2023-05-19T08:01:12;13.60;99.90
74901;DHT22;63461;51.416;6.758;2023-05-19T08:03:37;13.60;99.90
74901;DHT22;63461;51.416;6.758;2023-05-19T08:06:03;13.60;99.90
74901;DHT22;63461;51.416;6.758;2023-05-19T08:08:29;13.70;99.90
74901;DHT22;63461;51.416;6.758;2023-05-19T08:10:55;13.80;99.90
74901;DHT22;63461;51.416;6.758;2023-05-19T08:13:21;13.70;99.90
74901;DHT22;63461;51.416;6.758;2023-05-19T08:15:46;13.80;99.90
74901;DHT22;63461;51.416;6.758;2023-05-19T08:18:12;13.80;99.90
74901;DHT22;63461;51.416;6.758;2023-05-19T08:20:38;13.80;99.90
74901;DHT22;63461;51.416;6.758;2023-05-19T08:23:04;13.90;99.90
74901;DHT22;63461;51.416;6.758;2023-05-19T08:25:29;13.90;99.90
74901;DHT22;63461;51.416;6.758;2023-05-19T08:27:55;13.90;99.90
74901;DHT22;63461;51.416;6.758;2023-05-19T08:30:21;13.90;99.90
74901;DHT22;63461;51.416;6.758;2023-05-19T08:32:47;14.10;99.90
74901;DHT22;63461;51.416;6.758;2023-05-19T08:35:13;14.10;99.90
74901;DHT22;63461;51.416;6.758;2023-05-19T08:37:39;14.00;99.90
74901;DHT22;63461;51.416;6.758;2023-05-19T08:40:06;14.10;99.90
74901;DHT22;63461;51.416;6.758;2023-05-19T08:42:33;14.10;99.90
74901;DHT22;63461;51.416;6.758;2023-05-19T08:45:00;14.20;99.90
74901;DHT22;63461;51.416;6.758;2023-05-19T08:47:27;14.30;99.90
74901;DHT22;63461;51.416;6.758;2023-05-19T08:50:05;14.40;99.90
74901;DHT22;63461;51.416;6.758;2023-05-19T08:55:17;14.30;99.90
74901;DHT22;63461;51.416;6.758;2023-05-19T08:57:48;14.40;99.90
74901;DHT22;63461;51.416;6.758;2023-05-19T09:00:15;14.30;99.90
74901;DHT22;63461;51.416;6.758;2023-05-19T09:02:41;14.40;99.90
74901;DHT22;63461;51.416;6.758;2023-05-19T09:05:07;14.40;99.90
74901;DHT22;63461;51.416;6.758;2023-05-19T09:07:35;14.50;99.90
74901;DHT22;63461;51.416;6.758;2023-05-19T09:10:02;14.50;99.90
74901;DHT22;63461;51.416;6.758;2023-05-19T09:12:29;14.50;99.90
74901;DHT22;63461;51.416;6.758;2023-05-19T09:14:54;14.50;99.90
74901;DHT22;63461;51.416;6.758;2023-05-19T09:17:22;14.70;99.90
74901;DHT22;63461;51.416;6.758;2023-05-19T09:19:47;14.60;99.90
74901;DHT22;63461;51.416;6.758;2023-05-19T09:22:14;14.70;99.90
74901;DHT22;63461;51.416;6.758;2023-05-19T09:24:41;14.70;99.90
74901;DHT22;63461;51.416;6.758;2023-05-19T09:27:07;14.70;99.90
74901;DHT22;63461;51.416;6.758;2023-05-19T09:29:33;14.70;99.90
74901;DHT22;63461;51.416;6.758;2023-05-19T09:31:58;14.90;99.90
74901;DHT22;63461;51.416;6.758;2023-05-19T09:34:30;14.80;99.90
74901;DHT22;63461;51.416;6.758;2023-05-19T09:36:56;14.80;99.90
74901;DHT22;63461;51.416;6.758;2023-05-19T09:39:24;14.90;99.90
74901;DHT22;63461;51.416;6.758;2023-05-19T09:41:54;15.00;99.90
74901;DHT22;63461;51.416;6.758;2023-05-19T09:44:27;15.00;99.90
74901;DHT22;63461;51.416;6.758;2023-05-19T09:46:57;14.90;99.90
74901;DHT22;63461;51.416;6.758;2023-05-19T09:49:28;14.90;99.90
74901;DHT22;63461;51.416;6.758;2023-05-19T09:51:57;15.10;99.90
74901;DHT22;63461;51.416;6.758;2023-05-19T09:54:24;15.10;99.60
74901;DHT22;63461;51.416;6.758;2023-05-19T09:57:03;15.20;99.10
74901;DHT22;63461;51.416;6.758;2023-05-19T09:59:31;15.00;99.40
74901;DHT22;63461;51.416;6.758;2023-05-19T10:01:58;15.10;99.30
74901;DHT22;63461;51.416;6.758;2023-05-19T10:04:26;15.20;99.80
74901;DHT22;63461;51.416;6.758;2023-05-19T10:06:53;15.20;99.90
74901;DHT22;63461;51.416;6.758;2023-05-19T10:09:21;15.20;99.90
74901;DHT22;63461;51.416;6.758;2023-05-19T10:11:57;15.20;99.40
74901;DHT22;63461;51.416;6.758;2023-05-19T10:14:24;15.30;98.30
74901;DHT22;63461;51.416;6.758;2023-05-19T10:16:51;15.40;98.00
74901;DHT22;63461;51.416;6.758;2023-05-19T10:19:24;15.30;98.10
74901;DHT22;63461;51.416;6.758;2023-05-19T10:21:51;15.30;97.60
74901;DHT22;63461;51.416;6.758;2023-05-19T10:24:18;15.30;98.90
74901;DHT22;63461;51.416;6.758;2023-05-19T10:26:50;15.40;98.40
74901;DHT22;63461;51.416;6.758;2023-05-19T10:29:20;15.40;97.70
74901;DHT22;63461;51.416;6.758;2023-05-19T10:31:49;15.30;98.90
74901;DHT22;63461;51.416;6.758;2023-05-19T10:36:49;15.60;97.20
74901;DHT22;63461;51.416;6.758;2023-05-19T10:39:30;15.40;97.40
74901;DHT22;63461;51.416;6.758;2023-05-19T10:45:23;15.50;96.90
74901;DHT22;63461;51.416;6.758;2023-05-19T10:47:29;15.50;96.40
74901;DHT22;63461;51.416;6.758;2023-05-19T10:49:55;15.80;95.20
74901;DHT22;63461;51.416;6.758;2023-05-19T10:52:22;15.60;95.40
74901;DHT22;63461;51.416;6.758;2023-05-19T10:54:54;15.70;95.60
74901;DHT22;63461;51.416;6.758;2023-05-19T10:57:26;15.60;96.10
74901;DHT22;63461;51.416;6.758;2023-05-19T10:59:58;15.60;96.30
74901;DHT22;63461;51.416;6.758;2023-05-19T11:02:39;15.70;94.50
74901;DHT22;63461;51.416;6.758;2023-05-19T11:05:13;15.80;94.40
74901;DHT22;63461;51.416;6.758;2023-05-19T11:07:54;15.90;93.80
74901;DHT22;63461;51.416;6.758;2023-05-19T11:10:23;15.80;93.70
74901;DHT22;63461;51.416;6.758;2023-05-19T11:12:50;16.10;93.50
74901;DHT22;63461;51.416;6.758;2023-05-19T11:15:16;15.80;93.60
74901;DHT22;63461;51.416;6.758;2023-05-19T11:17:47;15.90;93.70
74901;DHT22;63461;51.416;6.758;2023-05-19T11:20:26;16.00;93.60
74901;DHT22;63461;51.416;6.758;2023-05-19T11:28:06;16.00;92.50
74901;DHT22;63461;51.416;6.758;2023-05-19T11:30:32;16.10;91.90
74901;DHT22;63461;51.416;6.758;2023-05-19T11:33:00;16.00;92.90
74901;DHT22;63461;51.416;6.758;2023-05-19T11:35:26;16.10;92.90
74901;DHT22;63461;51.416;6.758;2023-05-19T11:37:56;16.10;93.20
74901;DHT22;63461;51.416;6.758;2023-05-19T11:40:22;16.10;93.40
74901;DHT22;63461;51.416;6.758;2023-05-19T11:42:48;16.10;92.90
74901;DHT22;63461;51.416;6.758;2023-05-19T11:45:14;16.20;92.30
74901;DHT22;63461;51.416;6.758;2023-05-19T11:47:40;16.10;92.90
74901;DHT22;63461;51.416;6.758;2023-05-19T11:50:06;16.30;92.50
74901;DHT22;63461;51.416;6.758;2023-05-19T11:52:32;16.30;92.70
74901;DHT22;63461;51.416;6.758;2023-05-19T11:55:00;16.40;92.40
74901;DHT22;63461;51.416;6.758;2023-05-19T11:57:26;16.50;91.90
74901;DHT22;63461;51.416;6.758;2023-05-19T11:59:52;16.60;92.10
74901;DHT22;63461;51.416;6.758;2023-05-19T12:02:22;16.60;91.50
74901;DHT22;63461;51.416;6.758;2023-05-19T12:04:52;16.60;91.50
74901;DHT22;63461;51.416;6.758;2023-05-19T12:07:21;16.50;92.40
74901;DHT22;63461;51.416;6.758;2023-05-19T12:09:49;16.70;91.60
74901;DHT22;63461;51.416;6.758;2023-05-19T12:12:15;16.90;91.10
74901;DHT22;63461;51.416;6.758;2023-05-19T12:14:42;16.70;90.80
74901;DHT22;63461;51.416;6.758;2023-05-19T12:17:20;16.60;91.50
74901;DHT22;63461;51.416;6.758;2023-05-19T12:19:48;16.80;91.00
74901;DHT22;63461;51.416;6.758;2023-05-19T12:22:15;16.80;90.40
74901;DHT22;63461;51.416;6.758;2023-05-19T12:24:42;16.70;91.10
74901;DHT22;63461;51.416;6.758;2023-05-19T12:27:19;16.60;91.20
74901;DHT22;63461;51.416;6.758;2023-05-19T12:29:51;16.80;91.10
74901;DHT22;63461;51.416;6.758;2023-05-19T12:32:17;16.90;90.10
74901;DHT22;63461;51.416;6.758;2023-05-19T12:34:44;16.90;91.00
74901;DHT22;63461;51.416;6.758;2023-05-19T12:37:10;16.80;91.20
74901;DHT22;63461;51.416;6.758;2023-05-19T12:39:35;16.80;91.20
74901;DHT22;63461;51.416;6.758;2023-05-19T12:42:08;16.90;90.70
74901;DHT22;63461;51.416;6.758;2023-05-19T12:44:41;17.00;91.60
74901;DHT22;63461;51.416;6.758;2023-05-19T12:47:08;17.00;90.50
74901;DHT22;63461;51.416;6.758;2023-05-19T12:49:34;16.90;91.10
74901;DHT22;63461;51.416;6.758;2023-05-19T12:52:03;16.90;90.50
74901;DHT22;63461;51.416;6.758;2023-05-19T12:54:32;17.00;89.90
74901;DHT22;63461;51.416;6.758;2023-05-19T12:56:58;17.20;89.80
74901;DHT22;63461;51.416;6.758;2023-05-19T12:59:25;17.20;88.80
74901;DHT22;63461;51.416;6.758;2023-05-19T13:01:57;17.20;89.20
74901;DHT22;63461;51.416;6.758;2023-05-19T13:04:24;17.20;88.00
74901;DHT22;63461;51.416;6.758;2023-05-19T13:06:52;17.10;87.30
74901;DHT22;63461;51.416;6.758;2023-05-19T13:09:18;17.00;88.90
74901;DHT22;63461;51.416;6.758;2023-05-19T13:11:46;17.20;88.70
74901;DHT22;63461;51.416;6.758;2023-05-19T13:14:20;17.20;87.50
74901;DHT22;63461;51.416;6.758;2023-05-19T13:16:46;17.20;88.60
74901;DHT22;63461;51.416;6.758;2023-05-19T13:19:17;17.30;89.50
74901;DHT22;63461;51.416;6.758;2023-05-19T13:21:43;17.50;87.90
74901;DHT22;63461;51.416;6.758;2023-05-19T13:24:12;17.40;88.90
74901;DHT22;63461;51.416;6.758;2023-05-19T13:26:38;17.50;89.10
74901;DHT22;63461;51.416;6.758;2023-05-19T13:29:05;17.50;88.90
74901;DHT22;63461;51.416;6.758;2023-05-19T13:31:31;17.50;88.20
74901;DHT22;63461;51.416;6.758;2023-05-19T13:33:56;17.60;88.00
74901;DHT22;63461;51.416;6.758;2023-05-19T13:36:22;17.40;89.30
74901;DHT22;63461;51.416;6.758;2023-05-19T13:38:48;17.50;90.00
74901;DHT22;63461;51.416;6.758;2023-05-19T13:41:13;17.50;89.90
74901;DHT22;63461;51.416;6.758;2023-05-19T13:43:39;17.60;87.90
74901;DHT22;63461;51.416;6.758;2023-05-19T13:46:05;17.80;88.10
74901;DHT22;63461;51.416;6.758;2023-05-19T13:48:31;17.70;88.10
74901;DHT22;63461;51.416;6.758;2023-05-19T13:50:56;17.70;85.80
74901;DHT22;63461;51.416;6.758;2023-05-19T13:53:22;17.60;85.50
74901;DHT22;63461;51.416;6.758;2023-05-19T13:55:48;17.50;85.30
74901;DHT22;63461;51.416;6.758;2023-05-19T13:58:17;17.50;85.70
74901;DHT22;63461;51.416;6.758;2023-05-19T14:00:43;17.50;85.40
74901;DHT22;63461;51.416;6.758;2023-05-19T14:03:08;17.70;84.60
74901;DHT22;63461;51.416;6.758;2023-05-19T14:05:34;17.90;85.30
74901;DHT22;63461;51.416;6.758;2023-05-19T14:08:00;17.90;86.70
74901;DHT22;63461;51.416;6.758;2023-05-19T14:10:28;17.90;85.30
74901;DHT22;63461;51.416;6.758;2023-05-19T14:12:53;17.90;85.60
74901;DHT22;63461;51.416;6.758;2023-05-19T14:15:20;17.80;85.10
74901;DHT22;63461;51.416;6.758;2023-05-19T14:17:46;17.70;85.20
74901;DHT22;63461;51.416;6.758;2023-05-19T14:20:13;17.90;85.40
74901;DHT22;63461;51.416;6.758;2023-05-19T14:22:39;17.90;84.80
74901;DHT22;63461;51.416;6.758;2023-05-19T14:25:05;17.90;85.70
74901;DHT22;63461;51.416;6.758;2023-05-19T14:27:31;18.20;85.20
74901;DHT22;63461;51.416;6.758;2023-05-19T14:29:57;18.00;83.90
74901;DHT22;63461;51.416;6.758;2023-05-19T14:32:23;18.20;83.10
74901;DHT22;63461;51.416;6.758;2023-05-19T14:34:48;18.20;82.50
74901;DHT22;63461;51.416;6.758;2023-05-19T14:37:18;18.30;83.00
74901;DHT22;63461;51.416;6.758;2023-05-19T14:39:44;18.20;82.10
74901;DHT22;63461;51.416;6.758;2023-05-19T14:42:10;18.30;82.00
74901;DHT22;63461;51.416;6.758;2023-05-19T14:44:35;18.40;82.50
74901;DHT22;63461;51.416;6.758;2023-05-19T14:47:02;18.30;83.00
74901;DHT22;63461;51.416;6.758;2023-05-19T14:49:31;18.20;83.70
74901;DHT22;63461;51.416;6.758;2023-05-19T14:51:57;18.50;83.10
74901;DHT22;63461;51.416;6.758;2023-05-19T14:54:23;18.60;81.80
74901;DHT22;63461;51.416;6.758;2023-05-19T14:56:48;18.70;82.20
74901;DHT22;63461;51.416;6.758;2023-05-19T14:59:14;18.70;82.10
74901;DHT22;63461;51.416;6.758;2023-05-19T15:01:40;18.70;82.80
74901;DHT22;63461;51.416;6.758;2023-05-19T15:04:06;18.70;82.50
74901;DHT22;63461;51.416;6.758;2023-05-19T15:06:31;18.60;81.80
74901;DHT22;63461;51.416;6.758;2023-05-19T15:08:57;18.50;81.10
74901;DHT22;63461;51.416;6.758;2023-05-19T15:11:23;18.60;81.10
74901;DHT22;63461;51.416;6.758;2023-05-19T15:13:49;18.70;81.10
74901;DHT22;63461;51.416;6.758;2023-05-19T15:16:15;18.80;81.80
74901;DHT22;63461;51.416;6.758;2023-05-19T15:18:40;19.00;81.20
74901;DHT22;63461;51.416;6.758;2023-05-19T15:21:06;18.90;80.80
74901;DHT22;63461;51.416;6.758;2023-05-19T15:23:32;18.90;81.10
74901;DHT22;63461;51.416;6.758;2023-05-19T15:25:58;19.00;81.00
74901;DHT22;63461;51.416;6.758;2023-05-19T15:28:24;19.00;80.10
74901;DHT22;63461;51.416;6.758;2023-05-19T15:30:51;19.00;80.60
74901;DHT22;63461;51.416;6.758;2023-05-19T15:33:17;19.10;79.30
74901;DHT22;63461;51.416;6.758;2023-05-19T15:35:42;19.00;79.70
74901;DHT22;63461;51.416;6.758;2023-05-19T15:38:08;18.90;80.20
74901;DHT22;63461;51.416;6.758;2023-05-19T15:40:34;19.00;80.80
74901;DHT22;63461;51.416;6.758;2023-05-19T15:43:00;19.20;79.80
74901;DHT22;63461;51.416;6.758;2023-05-19T15:45:26;19.30;79.90
74901;DHT22;63461;51.416;6.758;2023-05-19T15:47:51;19.40;79.90
74901;DHT22;63461;51.416;6.758;2023-05-19T15:50:17;19.50;79.10
74901;DHT22;63461;51.416;6.758;2023-05-19T15:52:43;19.40;79.00
74901;DHT22;63461;51.416;6.758;2023-05-19T15:55:09;19.40;78.20
74901;DHT22;63461;51.416;6.758;2023-05-19T15:57:35;19.30;79.10